sensor_id;sensor_type;location;lat;lon;timestamp;temperature;humidity
9987;DHT22;5033;46.310;11.214;2023-01-24T00:01:19;3.70;99.90
9987;DHT22;5033;46.310;11.214;2023-01-24T00:03:46;3.60;99.90
9987;DHT22;5033;46.310;11.214;2023-01-24T00:06:13;3.60;99.90
9987;DHT22;5033;46.310;11.214;2023-01-24T00:08:41;3.50;99.90
9987;DHT22;5033;46.310;11.214;2023-01-24T00:11:10;3.50;99.90
9987;DHT22;5033;46.310;11.214;2023-01-24T00:13:38;3.50;99.90
9987;DHT22;5033;46.310;11.214;2023-01-24T00:16:08;3.50;99.90
9987;DHT22;5033;46.310;11.214;2023-01-24T00:18:36;3.40;99.90
9987;DHT22;5033;46.310;11.214;2023-01-24T00:21:05;3.40;99.90
9987;DHT22;5033;46.310;11.214;2023-01-24T00:23:34;3.40;99.90
9987;DHT22;5033;46.310;11.214;2023-01-24T00:26:02;3.30;99.90
9987;DHT22;5033;46.310;11.214;2023-01-24T00:28:29;3.30;99.90
9987;DHT22;5033;46.310;11.214;2023-01-24T00:30:56;3.20;99.90
9987;DHT22;5033;46.310;11.214;2023-01-24T00:33:25;3.20;99.90
9987;DHT22;5033;46.310;11.214;2023-01-24T00:35:52;3.10;99.90
9987;DHT22;5033;46.310;11.214;2023-01-24T00:38:20;3.10;99.90
9987;DHT22;5033;46.310;11.214;2023-01-24T00:40:47;3.10;99.90
9987;DHT22;5033;46.310;11.214;2023-01-24T00:43:15;3.10;99.90
9987;DHT22;5033;46.310;11.214;2023-01-24T00:45:44;3.10;99.90
9987;DHT22;5033;46.310;11.214;2023-01-24T00:48:11;3.20;99.90
9987;DHT22;5033;46.310;11.214;2023-01-24T00:50:40;3.20;99.90
9987;DHT22;5033;46.310;11.214;2023-01-24T00:53:08;3.20;99.90
9987;DHT22;5033;46.310;11.214;2023-01-24T00:55:40;3.20;99.90
9987;DHT22;5033;46.310;11.214;2023-01-24T00:58:07;3.20;99.90
9987;DHT22;5033;46.310;11.214;2023-01-24T01:00:34;3.20;99.90
9987;DHT22;5033;46.310;11.214;2023-01-24T01:03:06;3.20;99.90
9987;DHT22;5033;46.310;11.214;2023-01-24T01:05:33;3.20;99.90
9987;DHT22;5033;46.310;11.214;2023-01-24T01:08:02;3.20;99.90
9987;DHT22;5033;46.310;11.214;2023-01-24T01:10:29;3.20;99.90
9987;DHT22;5033;46.310;11.214;2023-01-24T01:12:56;3.10;99.90
9987;DHT22;5033;46.310;11.214;2023-01-24T01:15:24;3.10;99.90
9987;DHT22;5033;46.310;11.214;2023-01-24T01:17:51;3.10;99.90
9987;DHT22;5033;46.310;11.214;2023-01-24T01:20:18;3.10;99.90
9987;DHT22;5033;46.310;11.214;2023-01-24T01:22:45;3.20;99.90
9987;DHT22;5033;46.310;11.214;2023-01-24T01:25:13;3.20;99.90
9987;DHT22;5033;46.310;11.214;2023-01-24T01:27:40;3.20;99.90
9987;DHT22;5033;46.310;11.214;2023-01-24T01:30:08;3.10;99.90
9987;DHT22;5033;46.310;11.214;2023-01-24T01:32:35;3.10;99.90
9987;DHT22;5033;46.310;11.214;2023-01-24T01:35:03;3.10;99.90
9987;DHT22;5033;46.310;11.214;2023-01-24T01:37:30;3.10;99.90
9987;DHT22;5033;46.310;11.214;2023-01-24T01:39:57;3.10;99.90
9987;DHT22;5033;46.310;11.214;2023-01-24T01:42:26;3.10;99.90
9987;DHT22;5033;46.310;11.214;2023-01-24T01:44:53;3.10;99.90
9987;DHT22;5033;46.310;11.214;2023-01-24T01:47:26;3.00;99.90
9987;DHT22;5033;46.310;11.214;2023-01-24T01:49:57;3.10;99.90
9987;DHT22;5033;46.310;11.214;2023-01-24T01:52:28;3.10;99.90
9987;DHT22;5033;46.310;11.214;2023-01-24T01:54:59;3.10;99.90
9987;DHT22;5033;46.310;11.214;2023-01-24T01:57:30;3.10;99.90
9987;DHT22;5033;46.310;11.214;2023-01-24T02:00:02;3.20;99.90
9987;DHT22;5033;46.310;11.214;2023-01-24T02:02:30;3.20;99.90
9987;DHT22;5033;46.310;11.214;2023-01-24T02:05:01;3.10;99.90
9987;DHT22;5033;46.310;11.214;2023-01-24T02:07:33;3.20;99.90
9987;DHT22;5033;46.310;11.214;2023-01-24T02:10:01;3.20;99.90
9987;DHT22;5033;46.310;11.214;2023-01-24T02:12:33;3.20;99.90
9987;DHT22;5033;46.310;11.214;2023-01-24T02:15:05;3.20;99.90
9987;DHT22;5033;46.310;11.214;2023-01-24T02:17:50;3.20;99.90
9987;DHT22;5033;46.310;11.214;2023-01-24T02:20:35;3.20;99.90
9987;DHT22;5033;46.310;11.214;2023-01-24T02:23:20;3.20;99.90
9987;DHT22;5033;46.310;11.214;2023-01-24T02:26:01;3.20;99.90
9987;DHT22;5033;46.310;11.214;2023-01-24T02:28:29;3.30;99.90
9987;DHT22;5033;46.310;11.214;2023-01-24T02:30:56;3.30;99.90
9987;DHT22;5033;46.310;11.214;2023-01-24T02:33:23;3.30;99.90
9987;DHT22;5033;46.310;11.214;2023-01-24T02:35:51;3.30;99.90
9987;DHT22;5033;46.310;11.214;2023-01-24T02:38:33;3.30;99.90
9987;DHT22;5033;46.310;11.214;2023-01-24T02:41:02;3.30;99.90
9987;DHT22;5033;46.310;11.214;2023-01-24T02:43:34;3.30;99.90
9987;DHT22;5033;46.310;11.214;2023-01-24T02:46:03;3.30;99.90
9987;DHT22;5033;46.310;11.214;2023-01-24T02:48:30;3.30;99.90
9987;DHT22;5033;46.310;11.214;2023-01-24T02:50:57;3.30;99.90
9987;DHT22;5033;46.310;11.214;2023-01-24T02:53:42;3.20;99.90
9987;DHT22;5033;46.310;11.214;2023-01-24T02:56:10;3.20;99.90
9987;DHT22;5033;46.310;11.214;2023-01-24T02:58:54;3.20;99.90
9987;DHT22;5033;46.310;11.214;2023-01-24T03:01:23;3.20;99.90
9987;DHT22;5033;46.310;11.214;2023-01-24T03:03:50;3.20;99.90
9987;DHT22;5033;46.310;11.214;2023-01-24T03:06:18;3.20;99.90
9987;DHT22;5033;46.310;11.214;2023-01-24T03:08:45;3.20;99.90
9987;DHT22;5033;46.310;11.214;2023-01-24T03:11:14;3.20;99.90
9987;DHT22;5033;46.310;11.214;2023-01-24T03:13:41;3.20;99.90
9987;DHT22;5033;46.310;11.214;2023-01-24T03:16:25;3.20;99.90
9987;DHT22;5033;46.310;11.214;2023-01-24T03:19:09;3.20;99.90
9987;DHT22;5033;46.310;11.214;2023-01-24T03:21:54;3.20;99.90
9987;DHT22;5033;46.310;11.214;2023-01-24T03:24:38;3.20;99.90
9987;DHT22;5033;46.310;11.214;2023-01-24T03:27:24;3.10;99.90
9987;DHT22;5033;46.310;11.214;2023-01-24T03:30:09;3.10;99.90
9987;DHT22;5033;46.310;11.214;2023-01-24T03:32:58;3.10;99.90
9987;DHT22;5033;46.310;11.214;2023-01-24T03:35:43;3.10;99.90
9987;DHT22;5033;46.310;11.214;2023-01-24T03:38:20;3.10;99.90
9987;DHT22;5033;46.310;11.214;2023-01-24T03:41:05;3.10;99.90
9987;DHT22;5033;46.310;11.214;2023-01-24T03:43:33;3.10;99.90
9987;DHT22;5033;46.310;11.214;2023-01-24T03:46:00;3.10;99.90
9987;DHT22;5033;46.310;11.214;2023-01-24T03:48:28;3.20;99.90
9987;DHT22;5033;46.310;11.214;2023-01-24T03:51:02;3.20;99.90
9987;DHT22;5033;46.310;11.214;2023-01-24T03:53:47;3.20;99.90
9987;DHT22;5033;46.310;11.214;2023-01-24T03:56:14;3.20;99.90
9987;DHT22;5033;46.310;11.214;2023-01-24T03:58:43;3.20;99.90
9987;DHT22;5033;46.310;11.214;2023-01-24T04:01:10;3.20;99.90
9987;DHT22;5033;46.310;11.214;2023-01-24T04:03:37;3.20;99.90
9987;DHT22;5033;46.310;11.214;2023-01-24T04:06:04;3.20;99.90
9987;DHT22;5033;46.310;11.214;2023-01-24T04:08:32;3.20;99.90
9987;DHT22;5033;46.310;11.214;2023-01-24T04:10:59;3.20;99.90
9987;DHT22;5033;46.310;11.214;2023-01-24T04:13:26;3.20;99.90
9987;DHT22;5033;46.310;11.214;2023-01-24T04:15:54;3.20;99.90
9987;DHT22;5033;46.310;11.214;2023-01-24T04:18:21;3.20;99.90
9987;DHT22;5033;46.310;11.214;2023-01-24T04:20:48;3.10;99.90
9987;DHT22;5033;46.310;11.214;2023-01-24T04:23:15;3.10;99.90
9987;DHT22;5033;46.310;11.214;2023-01-24T04:25:48;3.10;99.90
9987;DHT22;5033;46.310;11.214;2023-01-24T04:28:20;3.10;99.90
9987;DHT22;5033;46.310;11.214;2023-01-24T04:30:47;3.10;99.90
9987;DHT22;5033;46.310;11.214;2023-01-24T04:33:15;3.10;99.90
9987;DHT22;5033;46.310;11.214;2023-01-24T04:35:42;3.20;99.90
9987;DHT22;5033;46.310;11.214;2023-01-24T04:38:09;3.20;99.90
9987;DHT22;5033;46.310;11.214;2023-01-24T04:40:36;3.20;99.90
9987;DHT22;5033;46.310;11.214;2023-01-24T04:43:04;3.20;99.90
9987;DHT22;5033;46.310;11.214;2023-01-24T04:45:31;3.20;99.90
9987;DHT22;5033;46.310;11.214;2023-01-24T04:47:58;3.10;99.90
9987;DHT22;5033;46.310;11.214;2023-01-24T04:50:26;3.20;99.90
9987;DHT22;5033;46.310;11.214;2023-01-24T04:52:53;3.20;99.90
9987;DHT22;5033;46.310;11.214;2023-01-24T04:55:20;3.20;99.90
9987;DHT22;5033;46.310;11.214;2023-01-24T04:57:48;3.20;99.90
9987;DHT22;5033;46.310;11.214;2023-01-24T05:00:15;3.20;99.90
9987;DHT22;5033;46.310;11.214;2023-01-24T05:02:43;3.20;99.90
9987;DHT22;5033;46.310;11.214;2023-01-24T05:05:09;3.20;99.90
9987;DHT22;5033;46.310;11.214;2023-01-24T05:07:38;3.10;99.90
9987;DHT22;5033;46.310;11.214;2023-01-24T05:10:06;3.10;99.90
9987;DHT22;5033;46.310;11.214;2023-01-24T05:12:33;3.10;99.90
9987;DHT22;5033;46.310;11.214;2023-01-24T05:15:00;3.10;99.90
9987;DHT22;5033;46.310;11.214;2023-01-24T05:17:27;3.10;99.90
9987;DHT22;5033;46.310;11.214;2023-01-24T05:19:54;3.10;99.90
9987;DHT22;5033;46.310;11.214;2023-01-24T05:22:21;3.00;99.90
9987;DHT22;5033;46.310;11.214;2023-01-24T05:24:50;3.00;99.90
9987;DHT22;5033;46.310;11.214;2023-01-24T05:27:17;2.90;99.90
9987;DHT22;5033;46.310;11.214;2023-01-24T05:29:44;2.90;99.90
9987;DHT22;5033;46.310;11.214;2023-01-24T05:32:11;2.90;99.90
9987;DHT22;5033;46.310;11.214;2023-01-24T05:34:38;2.90;99.90
9987;DHT22;5033;46.310;11.214;2023-01-24T05:37:05;2.90;99.90
9987;DHT22;5033;46.310;11.214;2023-01-24T05:39:32;2.90;99.90
9987;DHT22;5033;46.310;11.214;2023-01-24T05:42:01;2.90;99.90
9987;DHT22;5033;46.310;11.214;2023-01-24T05:44:28;2.80;99.90
9987;DHT22;5033;46.310;11.214;2023-01-24T05:46:55;2.80;99.90
9987;DHT22;5033;46.310;11.214;2023-01-24T05:49:22;2.80;99.90
9987;DHT22;5033;46.310;11.214;2023-01-24T05:51:50;2.80;99.90
9987;DHT22;5033;46.310;11.214;2023-01-24T05:54:17;2.80;99.90
9987;DHT22;5033;46.310;11.214;2023-01-24T05:56:44;2.80;99.90
9987;DHT22;5033;46.310;11.214;2023-01-24T05:59:13;2.80;99.90
9987;DHT22;5033;46.310;11.214;2023-01-24T06:01:40;2.80;99.90
9987;DHT22;5033;46.310;11.214;2023-01-24T06:04:07;2.70;99.90
9987;DHT22;5033;46.310;11.214;2023-01-24T06:06:34;2.80;99.90
9987;DHT22;5033;46.310;11.214;2023-01-24T06:09:01;2.70;99.90
9987;DHT22;5033;46.310;11.214;2023-01-24T06:11:29;2.80;99.90
9987;DHT22;5033;46.310;11.214;2023-01-24T06:13:58;2.80;99.90
9987;DHT22;5033;46.310;11.214;2023-01-24T06:16:27;2.80;99.90
9987;DHT22;5033;46.310;11.214;2023-01-24T06:18:54;2.80;99.90
9987;DHT22;5033;46.310;11.214;2023-01-24T06:21:33;2.80;99.90
9987;DHT22;5033;46.310;11.214;2023-01-24T06:24:03;2.70;99.90
9987;DHT22;5033;46.310;11.214;2023-01-24T06:26:31;2.70;99.90
9987;DHT22;5033;46.310;11.214;2023-01-24T06:28:59;2.70;99.90
9987;DHT22;5033;46.310;11.214;2023-01-24T06:31:33;2.70;99.90
9987;DHT22;5033;46.310;11.214;2023-01-24T06:34:18;2.60;99.90
9987;DHT22;5033;46.310;11.214;2023-01-24T06:36:58;2.60;99.90
9987;DHT22;5033;46.310;11.214;2023-01-24T06:39:27;2.60;99.90
9987;DHT22;5033;46.310;11.214;2023-01-24T06:41:55;2.60;99.90
9987;DHT22;5033;46.310;11.214;2023-01-24T06:44:23;2.60;99.90
9987;DHT22;5033;46.310;11.214;2023-01-24T06:46:52;2.60;99.90
9987;DHT22;5033;46.310;11.214;2023-01-24T06:49:19;2.50;99.90
9987;DHT22;5033;46.310;11.214;2023-01-24T06:51:49;2.60;99.90
9987;DHT22;5033;46.310;11.214;2023-01-24T06:54:16;2.70;99.90
9987;DHT22;5033;46.310;11.214;2023-01-24T06:56:43;2.70;99.90
9987;DHT22;5033;46.310;11.214;2023-01-24T06:59:10;2.70;99.90
9987;DHT22;5033;46.310;11.214;2023-01-24T07:01:38;2.70;99.90
9987;DHT22;5033;46.310;11.214;2023-01-24T07:04:06;2.70;99.90
9987;DHT22;5033;46.310;11.214;2023-01-24T07:06:33;2.70;99.90
9987;DHT22;5033;46.310;11.214;2023-01-24T07:09:00;2.70;99.90
9987;DHT22;5033;46.310;11.214;2023-01-24T07:11:27;2.80;99.90
9987;DHT22;5033;46.310;11.214;2023-01-24T07:13:54;2.70;99.90
9987;DHT22;5033;46.310;11.214;2023-01-24T07:16:21;2.80;99.90
9987;DHT22;5033;46.310;11.214;2023-01-24T07:18:48;2.80;99.90
9987;DHT22;5033;46.310;11.214;2023-01-24T07:21:18;2.80;99.90
9987;DHT22;5033;46.310;11.214;2023-01-24T07:23:47;2.90;99.90
9987;DHT22;5033;46.310;11.214;2023-01-24T07:26:15;2.90;99.90
9987;DHT22;5033;46.310;11.214;2023-01-24T07:28:42;2.90;99.90
9987;DHT22;5033;46.310;11.214;2023-01-24T07:31:12;2.90;99.90
9987;DHT22;5033;46.310;11.214;2023-01-24T07:33:41;3.00;99.90
9987;DHT22;5033;46.310;11.214;2023-01-24T07:36:13;3.00;99.90
9987;DHT22;5033;46.310;11.214;2023-01-24T07:38:42;3.00;99.90
9987;DHT22;5033;46.310;11.214;2023-01-24T07:41:09;3.10;99.90
9987;DHT22;5033;46.310;11.214;2023-01-24T07:43:37;3.10;99.90
9987;DHT22;5033;46.310;11.214;2023-01-24T07:46:04;3.10;99.90
9987;DHT22;5033;46.310;11.214;2023-01-24T07:48:31;3.10;99.90
9987;DHT22;5033;46.310;11.214;2023-01-24T07:50:59;3.20;99.90
9987;DHT22;5033;46.310;11.214;2023-01-24T07:53:26;3.20;99.90
9987;DHT22;5033;46.310;11.214;2023-01-24T07:55:57;3.50;99.90
9987;DHT22;5033;46.310;11.214;2023-01-24T07:58:25;3.60;99.90
9987;DHT22;5033;46.310;11.214;2023-01-24T08:00:52;3.70;99.90
9987;DHT22;5033;46.310;11.214;2023-01-24T08:03:19;3.70;99.90
9987;DHT22;5033;46.310;11.214;2023-01-24T08:05:46;3.70;99.90
9987;DHT22;5033;46.310;11.214;2023-01-24T08:08:13;3.80;99.90
9987;DHT22;5033;46.310;11.214;2023-01-24T08:10:40;3.80;99.90
9987;DHT22;5033;46.310;11.214;2023-01-24T08:13:08;3.90;99.90
9987;DHT22;5033;46.310;11.214;2023-01-24T08:15:36;4.00;99.90
9987;DHT22;5033;46.310;11.214;2023-01-24T08:18:03;4.10;99.90
9987;DHT22;5033;46.310;11.214;2023-01-24T08:20:30;4.30;99.90
9987;DHT22;5033;46.310;11.214;2023-01-24T08:22:58;4.50;99.90
9987;DHT22;5033;46.310;11.214;2023-01-24T08:25:25;4.60;99.90
9987;DHT22;5033;46.310;11.214;2023-01-24T08:27:53;4.60;99.90
9987;DHT22;5033;46.310;11.214;2023-01-24T08:30:22;4.50;99.90
9987;DHT22;5033;46.310;11.214;2023-01-24T08:32:57;4.50;99.90
9987;DHT22;5033;46.310;11.214;2023-01-24T08:35:25;4.40;99.90
9987;DHT22;5033;46.310;11.214;2023-01-24T08:37:51;4.30;99.90
9987;DHT22;5033;46.310;11.214;2023-01-24T08:40:20;4.30;99.90
9987;DHT22;5033;46.310;11.214;2023-01-24T08:42:47;4.30;99.90
9987;DHT22;5033;46.310;11.214;2023-01-24T08:45:15;4.30;99.90
9987;DHT22;5033;46.310;11.214;2023-01-24T08:47:43;4.30;99.90
9987;DHT22;5033;46.310;11.214;2023-01-24T08:50:11;4.40;99.90
9987;DHT22;5033;46.310;11.214;2023-01-24T08:52:41;4.40;99.90
9987;DHT22;5033;46.310;11.214;2023-01-24T08:55:09;4.60;99.90
9987;DHT22;5033;46.310;11.214;2023-01-24T08:57:36;4.70;99.90
9987;DHT22;5033;46.310;11.214;2023-01-24T09:00:04;4.70;99.90
9987;DHT22;5033;46.310;11.214;2023-01-24T09:02:32;4.80;99.90
9987;DHT22;5033;46.310;11.214;2023-01-24T09:05:04;4.90;99.90
9987;DHT22;5033;46.310;11.214;2023-01-24T09:07:32;5.00;99.90
9987;DHT22;5033;46.310;11.214;2023-01-24T09:09:59;5.10;99.90
9987;DHT22;5033;46.310;11.214;2023-01-24T09:12:27;5.10;99.90
9987;DHT22;5033;46.310;11.214;2023-01-24T09:14:54;5.20;99.90
9987;DHT22;5033;46.310;11.214;2023-01-24T09:17:21;5.20;99.90
9987;DHT22;5033;46.310;11.214;2023-01-24T09:19:48;5.10;99.90
9987;DHT22;5033;46.310;11.214;2023-01-24T09:22:16;5.10;99.90
9987;DHT22;5033;46.310;11.214;2023-01-24T09:24:43;5.20;99.90
9987;DHT22;5033;46.310;11.214;2023-01-24T09:27:11;5.20;99.90
9987;DHT22;5033;46.310;11.214;2023-01-24T09:29:38;5.10;99.90
9987;DHT22;5033;46.310;11.214;2023-01-24T09:32:05;5.00;99.90
9987;DHT22;5033;46.310;11.214;2023-01-24T09:34:32;5.00;99.90
9987;DHT22;5033;46.310;11.214;2023-01-24T09:37:00;5.00;99.90
9987;DHT22;5033;46.310;11.214;2023-01-24T09:39:28;5.10;99.90
9987;DHT22;5033;46.310;11.214;2023-01-24T09:42:00;5.20;99.90
9987;DHT22;5033;46.310;11.214;2023-01-24T09:44:37;5.20;99.90
9987;DHT22;5033;46.310;11.214;2023-01-24T09:47:21;5.30;99.90
9987;DHT22;5033;46.310;11.214;2023-01-24T09:49:52;5.40;99.90
9987;DHT22;5033;46.310;11.214;2023-01-24T09:52:26;5.50;99.90
9987;DHT22;5033;46.310;11.214;2023-01-24T09:55:00;5.60;99.90
9987;DHT22;5033;46.310;11.214;2023-01-24T09:57:30;5.70;99.90
9987;DHT22;5033;46.310;11.214;2023-01-24T10:00:03;5.70;99.90
9987;DHT22;5033;46.310;11.214;2023-01-24T10:02:31;5.70;99.90
9987;DHT22;5033;46.310;11.214;2023-01-24T10:04:59;5.60;99.90
9987;DHT22;5033;46.310;11.214;2023-01-24T10:07:53;5.60;99.90
9987;DHT22;5033;46.310;11.214;2023-01-24T10:16:42;5.60;99.90
9987;DHT22;5033;46.310;11.214;2023-01-24T10:19:20;5.50;99.90
9987;DHT22;5033;46.310;11.214;2023-01-24T10:22:12;5.50;99.90
9987;DHT22;5033;46.310;11.214;2023-01-24T10:24:42;5.60;99.90
9987;DHT22;5033;46.310;11.214;2023-01-24T10:27:19;5.80;99.90
9987;DHT22;5033;46.310;11.214;2023-01-24T10:29:54;5.90;99.90
9987;DHT22;5033;46.310;11.214;2023-01-24T10:32:31;5.90;99.90
9987;DHT22;5033;46.310;11.214;2023-01-24T10:35:01;5.80;99.90
9987;DHT22;5033;46.310;11.214;2023-01-24T10:37:35;5.80;99.90
9987;DHT22;5033;46.310;11.214;2023-01-24T10:40:11;5.80;99.90
9987;DHT22;5033;46.310;11.214;2023-01-24T10:42:38;5.90;99.90
9987;DHT22;5033;46.310;11.214;2023-01-24T10:45:25;6.10;99.90
9987;DHT22;5033;46.310;11.214;2023-01-24T10:47:57;6.20;99.90
9987;DHT22;5033;46.310;11.214;2023-01-24T10:50:33;6.30;99.90
9987;DHT22;5033;46.310;11.214;2023-01-24T10:53:12;6.40;99.90
9987;DHT22;5033;46.310;11.214;2023-01-24T10:55:39;6.60;99.90
9987;DHT22;5033;46.310;11.214;2023-01-24T10:58:20;6.60;99.90
9987;DHT22;5033;46.310;11.214;2023-01-24T11:00:55;6.70;99.90
9987;DHT22;5033;46.310;11.214;2023-01-24T11:03:26;6.80;99.90
9987;DHT22;5033;46.310;11.214;2023-01-24T11:05:56;7.00;99.90
9987;DHT22;5033;46.310;11.214;2023-01-24T11:08:25;7.70;99.90
9987;DHT22;5033;46.310;11.214;2023-01-24T11:10:54;8.50;99.90
9987;DHT22;5033;46.310;11.214;2023-01-24T11:13:32;9.20;99.90
9987;DHT22;5033;46.310;11.214;2023-01-24T11:16:03;9.60;99.90
9987;DHT22;5033;46.310;11.214;2023-01-24T11:18:32;9.90;99.90
9987;DHT22;5033;46.310;11.214;2023-01-24T11:21:08;10.00;99.90
9987;DHT22;5033;46.310;11.214;2023-01-24T11:23:36;10.00;99.90
9987;DHT22;5033;46.310;11.214;2023-01-24T11:26:04;9.90;99.90
9987;DHT22;5033;46.310;11.214;2023-01-24T11:28:33;9.70;99.90
9987;DHT22;5033;46.310;11.214;2023-01-24T11:31:03;9.50;99.90
9987;DHT22;5033;46.310;11.214;2023-01-24T11:33:41;9.40;99.90
9987;DHT22;5033;46.310;11.214;2023-01-24T11:36:25;9.30;99.90
9987;DHT22;5033;46.310;11.214;2023-01-24T11:38:56;9.20;99.90
9987;DHT22;5033;46.310;11.214;2023-01-24T11:41:30;9.10;99.90
9987;DHT22;5033;46.310;11.214;2023-01-24T11:44:33;9.00;99.90
9987;DHT22;5033;46.310;11.214;2023-01-24T11:47:08;9.10;99.90
9987;DHT22;5033;46.310;11.214;2023-01-24T11:49:53;9.20;99.90
9987;DHT22;5033;46.310;11.214;2023-01-24T11:55:46;9.50;99.90
9987;DHT22;5033;46.310;11.214;2023-01-24T11:58:25;9.90;99.90
9987;DHT22;5033;46.310;11.214;2023-01-24T12:00:58;10.10;99.90
9987;DHT22;5033;46.310;11.214;2023-01-24T12:03:44;10.30;99.90
9987;DHT22;5033;46.310;11.214;2023-01-24T12:06:19;10.50;99.90
9987;DHT22;5033;46.310;11.214;2023-01-24T12:09:02;10.70;99.90
9987;DHT22;5033;46.310;11.214;2023-01-24T12:11:37;11.00;99.90
9987;DHT22;5033;46.310;11.214;2023-01-24T12:14:39;11.10;99.90
9987;DHT22;5033;46.310;11.214;2023-01-24T12:17:17;11.10;99.90
9987;DHT22;5033;46.310;11.214;2023-01-24T12:20:02;10.70;99.90
9987;DHT22;5033;46.310;11.214;2023-01-24T12:22:34;10.10;99.90
9987;DHT22;5033;46.310;11.214;2023-01-24T12:25:05;9.90;99.90
9987;DHT22;5033;46.310;11.214;2023-01-24T12:27:38;9.70;99.90
9987;DHT22;5033;46.310;11.214;2023-01-24T12:30:14;9.60;99.90
9987;DHT22;5033;46.310;11.214;2023-01-24T12:32:46;9.50;99.90
9987;DHT22;5033;46.310;11.214;2023-01-24T12:35:22;9.40;99.90
9987;DHT22;5033;46.310;11.214;2023-01-24T12:37:54;9.00;99.90
9987;DHT22;5033;46.310;11.214;2023-01-24T12:40:34;8.80;99.90
9987;DHT22;5033;46.310;11.214;2023-01-24T12:43:09;8.60;99.90
9987;DHT22;5033;46.310;11.214;2023-01-24T12:45:43;8.70;99.90
9987;DHT22;5033;46.310;11.214;2023-01-24T12:48:14;8.70;99.90
9987;DHT22;5033;46.310;11.214;2023-01-24T12:50:52;8.90;99.90
9987;DHT22;5033;46.310;11.214;2023-01-24T12:53:23;9.00;99.90
9987;DHT22;5033;46.310;11.214;2023-01-24T12:55:55;9.10;99.90
9987;DHT22;5033;46.310;11.214;2023-01-24T12:58:29;9.30;99.90
9987;DHT22;5033;46.310;11.214;2023-01-24T13:01:09;9.60;99.90
9987;DHT22;5033;46.310;11.214;2023-01-24T13:04:00;10.10;99.90
9987;DHT22;5033;46.310;11.214;2023-01-24T13:06:41;10.50;99.90
9987;DHT22;5033;46.310;11.214;2023-01-24T13:09:17;10.90;99.90
9987;DHT22;5033;46.310;11.214;2023-01-24T13:11:50;11.10;99.90
9987;DHT22;5033;46.310;11.214;2023-01-24T13:14:22;11.40;99.90
9987;DHT22;5033;46.310;11.214;2023-01-24T13:17:16;11.40;99.90
9987;DHT22;5033;46.310;11.214;2023-01-24T13:20:05;11.30;99.90
9987;DHT22;5033;46.310;11.214;2023-01-24T13:22:47;11.20;99.90
9987;DHT22;5033;46.310;11.214;2023-01-24T13:25:40;11.20;99.90
9987;DHT22;5033;46.310;11.214;2023-01-24T13:28:17;11.10;99.90
9987;DHT22;5033;46.310;11.214;2023-01-24T13:30:51;10.80;99.90
9987;DHT22;5033;46.310;11.214;2023-01-24T13:33:26;10.50;99.90
9987;DHT22;5033;46.310;11.214;2023-01-24T13:35:55;10.10;99.90
9987;DHT22;5033;46.310;11.214;2023-01-24T13:38:25;9.80;99.90
9987;DHT22;5033;46.310;11.214;2023-01-24T13:40:59;9.50;99.90
9987;DHT22;5033;46.310;11.214;2023-01-24T13:43:55;9.30;99.90
9987;DHT22;5033;46.310;11.214;2023-01-24T13:49:37;9.30;99.90
9987;DHT22;5033;46.310;11.214;2023-01-24T13:52:40;9.10;99.90
9987;DHT22;5033;46.310;11.214;2023-01-24T13:58:28;9.20;99.90
9987;DHT22;5033;46.310;11.214;2023-01-24T14:00:57;9.30;99.90
9987;DHT22;5033;46.310;11.214;2023-01-24T14:03:29;9.20;99.90
9987;DHT22;5033;46.310;11.214;2023-01-24T14:06:09;9.10;99.90
9987;DHT22;5033;46.310;11.214;2023-01-24T14:08:44;9.00;99.90
9987;DHT22;5033;46.310;11.214;2023-01-24T14:11:34;8.80;99.90
9987;DHT22;5033;46.310;11.214;2023-01-24T14:14:26;8.90;99.90
9987;DHT22;5033;46.310;11.214;2023-01-24T14:17:27;8.80;99.90
9987;DHT22;5033;46.310;11.214;2023-01-24T14:19:57;8.80;99.90
9987;DHT22;5033;46.310;11.214;2023-01-24T14:22:38;8.80;99.90
9987;DHT22;5033;46.310;11.214;2023-01-24T14:25:32;8.90;99.90
9987;DHT22;5033;46.310;11.214;2023-01-24T14:28:01;8.90;99.90
9987;DHT22;5033;46.310;11.214;2023-01-24T14:30:35;8.70;99.90
9987;DHT22;5033;46.310;11.214;2023-01-24T14:33:13;8.50;99.90
9987;DHT22;5033;46.310;11.214;2023-01-24T14:35:53;8.40;99.90
9987;DHT22;5033;46.310;11.214;2023-01-24T14:38:21;8.20;99.90
9987;DHT22;5033;46.310;11.214;2023-01-24T14:40:51;8.10;99.90
9987;DHT22;5033;46.310;11.214;2023-01-24T14:43:20;8.10;99.90
9987;DHT22;5033;46.310;11.214;2023-01-24T14:45:47;8.10;99.90
9987;DHT22;5033;46.310;11.214;2023-01-24T14:48:22;8.00;99.90
9987;DHT22;5033;46.310;11.214;2023-01-24T14:50:56;8.00;99.90
9987;DHT22;5033;46.310;11.214;2023-01-24T14:53:26;8.00;99.90
9987;DHT22;5033;46.310;11.214;2023-01-24T14:55:56;8.00;99.90
9987;DHT22;5033;46.310;11.214;2023-01-24T14:58:28;8.10;99.90
9987;DHT22;5033;46.310;11.214;2023-01-24T15:00:56;8.10;99.90
9987;DHT22;5033;46.310;11.214;2023-01-24T15:03:25;8.10;99.90
9987;DHT22;5033;46.310;11.214;2023-01-24T15:05:56;8.00;99.90
9987;DHT22;5033;46.310;11.214;2023-01-24T15:08:23;7.80;99.90
9987;DHT22;5033;46.310;11.214;2023-01-24T15:11:02;7.70;99.90
9987;DHT22;5033;46.310;11.214;2023-01-24T15:13:32;7.70;99.90
9987;DHT22;5033;46.310;11.214;2023-01-24T15:16:00;7.70;99.90
9987;DHT22;5033;46.310;11.214;2023-01-24T15:18:45;7.70;99.90
9987;DHT22;5033;46.310;11.214;2023-01-24T15:21:26;7.70;99.90
9987;DHT22;5033;46.310;11.214;2023-01-24T15:23:55;7.70;99.90
9987;DHT22;5033;46.310;11.214;2023-01-24T15:26:36;7.70;99.90
9987;DHT22;5033;46.310;11.214;2023-01-24T15:29:34;7.60;99.90
9987;DHT22;5033;46.310;11.214;2023-01-24T15:32:01;7.60;99.90
9987;DHT22;5033;46.310;11.214;2023-01-24T15:34:28;7.60;99.90
9987;DHT22;5033;46.310;11.214;2023-01-24T15:36:59;7.60;99.90
9987;DHT22;5033;46.310;11.214;2023-01-24T15:39:26;7.50;99.90
9987;DHT22;5033;46.310;11.214;2023-01-24T15:41:55;7.40;99.90
9987;DHT22;5033;46.310;11.214;2023-01-24T15:44:44;7.30;99.90
9987;DHT22;5033;46.310;11.214;2023-01-24T15:47:19;7.30;99.90
9987;DHT22;5033;46.310;11.214;2023-01-24T15:50:14;7.30;99.90
9987;DHT22;5033;46.310;11.214;2023-01-24T15:53:11;7.20;99.90
9987;DHT22;5033;46.310;11.214;2023-01-24T15:55:38;7.20;99.90
9987;DHT22;5033;46.310;11.214;2023-01-24T15:58:08;7.10;99.90
9987;DHT22;5033;46.310;11.214;2023-01-24T16:00:37;7.00;99.90
9987;DHT22;5033;46.310;11.214;2023-01-24T16:03:04;7.00;99.90
9987;DHT22;5033;46.310;11.214;2023-01-24T16:05:30;6.90;99.90
9987;DHT22;5033;46.310;11.214;2023-01-24T16:07:57;6.90;99.90
9987;DHT22;5033;46.310;11.214;2023-01-24T16:10:24;6.90;99.90
9987;DHT22;5033;46.310;11.214;2023-01-24T16:12:51;7.00;99.90
9987;DHT22;5033;46.310;11.214;2023-01-24T16:15:21;7.00;99.90
9987;DHT22;5033;46.310;11.214;2023-01-24T16:17:48;6.90;99.90
9987;DHT22;5033;46.310;11.214;2023-01-24T16:20:17;6.90;99.90
9987;DHT22;5033;46.310;11.214;2023-01-24T16:22:45;6.80;99.90
9987;DHT22;5033;46.310;11.214;2023-01-24T16:25:13;6.80;99.90
9987;DHT22;5033;46.310;11.214;2023-01-24T16:27:40;6.80;99.90
9987;DHT22;5033;46.310;11.214;2023-01-24T16:30:13;6.80;99.90
9987;DHT22;5033;46.310;11.214;2023-01-24T16:32:44;6.70;99.90
9987;DHT22;5033;46.310;11.214;2023-01-24T16:35:11;6.70;99.90
9987;DHT22;5033;46.310;11.214;2023-01-24T16:37:38;6.70;99.90
9987;DHT22;5033;46.310;11.214;2023-01-24T16:40:08;6.70;99.90
9987;DHT22;5033;46.310;11.214;2023-01-24T16:42:38;6.70;99.90
9987;DHT22;5033;46.310;11.214;2023-01-24T16:45:08;6.70;99.90